sensor_id;sensor_type;location;lat;lon;timestamp;P1;durP1;ratioP1;P2;durP2;ratioP2
66112;SDS011;52893;52.870;5.822;2023-04-24T00:01:00;10.70;;;6.05;;
66112;SDS011;52893;52.870;5.822;2023-04-24T00:03:27;9.15;;;6.40;;
66112;SDS011;52893;52.870;5.822;2023-04-24T00:05:55;10.70;;;6.15;;
66112;SDS011;52893;52.870;5.822;2023-04-24T00:08:22;7.57;;;5.75;;
66112;SDS011;52893;52.870;5.822;2023-04-24T00:10:51;7.43;;;5.38;;
66112;SDS011;52893;52.870;5.822;2023-04-24T00:13:18;9.20;;;6.45;;
66112;SDS011;52893;52.870;5.822;2023-04-24T00:15:46;7.13;;;6.00;;
66112;SDS011;52893;52.870;5.822;2023-04-24T00:18:13;6.30;;;5.00;;
66112;SDS011;52893;52.870;5.822;2023-04-24T00:20:40;6.82;;;5.50;;
66112;SDS011;52893;52.870;5.822;2023-04-24T00:23:09;6.88;;;4.50;;
66112;SDS011;52893;52.870;5.822;2023-04-24T00:25:36;5.60;;;4.20;;
66112;SDS011;52893;52.870;5.822;2023-04-24T00:28:05;5.32;;;4.57;;
66112;SDS011;52893;52.870;5.822;2023-04-24T00:30:32;8.20;;;4.90;;
66112;SDS011;52893;52.870;5.822;2023-04-24T00:32:59;5.03;;;4.43;;
66112;SDS011;52893;52.870;5.822;2023-04-24T00:35:26;6.22;;;3.88;;
66112;SDS011;52893;52.870;5.822;2023-04-24T00:37:54;3.40;;;3.10;;
66112;SDS011;52893;52.870;5.822;2023-04-24T00:40:21;3.13;;;2.78;;
66112;SDS011;52893;52.870;5.822;2023-04-24T00:42:48;2.88;;;2.67;;
66112;SDS011;52893;52.870;5.822;2023-04-24T00:45:17;2.92;;;2.53;;
66112;SDS011;52893;52.870;5.822;2023-04-24T00:47:45;5.03;;;2.60;;
66112;SDS011;52893;52.870;5.822;2023-04-24T00:50:14;2.97;;;2.67;;
66112;SDS011;52893;52.870;5.822;2023-04-24T00:52:42;3.10;;;2.65;;
66112;SDS011;52893;52.870;5.822;2023-04-24T00:55:10;3.72;;;2.88;;
66112;SDS011;52893;52.870;5.822;2023-04-24T00:57:37;3.25;;;2.85;;
66112;SDS011;52893;52.870;5.822;2023-04-24T01:00:06;6.03;;;3.10;;
66112;SDS011;52893;52.870;5.822;2023-04-24T01:02:37;3.63;;;2.92;;
66112;SDS011;52893;52.870;5.822;2023-04-24T01:05:09;3.17;;;2.90;;
66112;SDS011;52893;52.870;5.822;2023-04-24T01:07:37;8.48;;;3.95;;
66112;SDS011;52893;52.870;5.822;2023-04-24T01:10:06;3.50;;;3.20;;
66112;SDS011;52893;52.870;5.822;2023-04-24T01:12:34;5.63;;;3.38;;
66112;SDS011;52893;52.870;5.822;2023-04-24T01:15:02;4.03;;;3.45;;
66112;SDS011;52893;52.870;5.822;2023-04-24T01:17:30;4.97;;;3.17;;
66112;SDS011;52893;52.870;5.822;2023-04-24T01:20:00;4.63;;;3.35;;
66112;SDS011;52893;52.870;5.822;2023-04-24T01:22:33;3.65;;;3.20;;
66112;SDS011;52893;52.870;5.822;2023-04-24T01:25:00;5.32;;;3.72;;
66112;SDS011;52893;52.870;5.822;2023-04-24T01:27:29;4.07;;;3.67;;
66112;SDS011;52893;52.870;5.822;2023-04-24T01:29:57;6.05;;;3.72;;
66112;SDS011;52893;52.870;5.822;2023-04-24T01:32:24;5.15;;;4.20;;
66112;SDS011;52893;52.870;5.822;2023-04-24T01:34:52;5.30;;;4.18;;
66112;SDS011;52893;52.870;5.822;2023-04-24T01:37:19;6.25;;;4.65;;
66112;SDS011;52893;52.870;5.822;2023-04-24T01:39:48;8.90;;;4.93;;
66112;SDS011;52893;52.870;5.822;2023-04-24T01:42:15;7.05;;;3.95;;
66112;SDS011;52893;52.870;5.822;2023-04-24T01:44:43;4.78;;;4.20;;
66112;SDS011;52893;52.870;5.822;2023-04-24T01:47:11;6.60;;;3.85;;
66112;SDS011;52893;52.870;5.822;2023-04-24T01:49:39;4.57;;;3.85;;
66112;SDS011;52893;52.870;5.822;2023-04-24T01:52:06;4.57;;;3.63;;
66112;SDS011;52893;52.870;5.822;2023-04-24T01:54:33;5.13;;;3.90;;
66112;SDS011;52893;52.870;5.822;2023-04-24T01:57:02;5.38;;;4.30;;
66112;SDS011;52893;52.870;5.822;2023-04-24T01:59:32;6.95;;;4.80;;
66112;SDS011;52893;52.870;5.822;2023-04-24T02:02:00;5.88;;;4.50;;
66112;SDS011;52893;52.870;5.822;2023-04-24T02:04:28;5.68;;;3.90;;
66112;SDS011;52893;52.870;5.822;2023-04-24T02:06:55;6.20;;;4.45;;
66112;SDS011;52893;52.870;5.822;2023-04-24T02:09:24;5.80;;;4.57;;
66112;SDS011;52893;52.870;5.822;2023-04-24T02:11:51;6.70;;;5.22;;
66112;SDS011;52893;52.870;5.822;2023-04-24T02:14:20;8.07;;;5.63;;
66112;SDS011;52893;52.870;5.822;2023-04-24T02:16:47;9.13;;;5.30;;
66112;SDS011;52893;52.870;5.822;2023-04-24T02:19:14;8.65;;;6.15;;
66112;SDS011;52893;52.870;5.822;2023-04-24T02:21:41;8.65;;;6.28;;
66112;SDS011;52893;52.870;5.822;2023-04-24T02:24:08;10.15;;;6.18;;
66112;SDS011;52893;52.870;5.822;2023-04-24T02:26:36;8.23;;;6.20;;
66112;SDS011;52893;52.870;5.822;2023-04-24T02:29:03;9.93;;;6.45;;
66112;SDS011;52893;52.870;5.822;2023-04-24T02:31:32;8.88;;;6.50;;
66112;SDS011;52893;52.870;5.822;2023-04-24T02:33:59;8.88;;;6.53;;
66112;SDS011;52893;52.870;5.822;2023-04-24T02:36:26;12.55;;;7.25;;
66112;SDS011;52893;52.870;5.822;2023-04-24T02:38:54;10.73;;;7.10;;
66112;SDS011;52893;52.870;5.822;2023-04-24T02:41:21;12.10;;;7.05;;
66112;SDS011;52893;52.870;5.822;2023-04-24T02:43:48;12.30;;;7.78;;
66112;SDS011;52893;52.870;5.822;2023-04-24T02:46:15;11.10;;;8.13;;
66112;SDS011;52893;52.870;5.822;2023-04-24T02:48:45;15.63;;;7.88;;
66112;SDS011;52893;52.870;5.822;2023-04-24T02:51:13;12.15;;;8.63;;
66112;SDS011;52893;52.870;5.822;2023-04-24T02:53:40;13.13;;;7.82;;
66112;SDS011;52893;52.870;5.822;2023-04-24T02:56:07;15.93;;;9.50;;
66112;SDS011;52893;52.870;5.822;2023-04-24T02:58:34;11.85;;;7.85;;
66112;SDS011;52893;52.870;5.822;2023-04-24T03:01:02;15.43;;;9.15;;
66112;SDS011;52893;52.870;5.822;2023-04-24T03:03:29;7.72;;;5.20;;
66112;SDS011;52893;52.870;5.822;2023-04-24T03:05:58;3.53;;;2.50;;
66112;SDS011;52893;52.870;5.822;2023-04-24T03:08:25;1.98;;;1.48;;
66112;SDS011;52893;52.870;5.822;2023-04-24T03:10:52;1.20;;;1.10;;
66112;SDS011;52893;52.870;5.822;2023-04-24T03:13:20;2.05;;;1.00;;
66112;SDS011;52893;52.870;5.822;2023-04-24T03:15:47;1.50;;;0.90;;
66112;SDS011;52893;52.870;5.822;2023-04-24T03:18:14;1.10;;;1.00;;
66112;SDS011;52893;52.870;5.822;2023-04-24T03:20:42;2.22;;;1.30;;
66112;SDS011;52893;52.870;5.822;2023-04-24T03:23:11;6.93;;;1.15;;
66112;SDS011;52893;52.870;5.822;2023-04-24T03:25:38;1.40;;;1.30;;
66112;SDS011;52893;52.870;5.822;2023-04-24T03:28:07;1.65;;;1.55;;
66112;SDS011;52893;52.870;5.822;2023-04-24T03:30:43;1.48;;;1.38;;
66112;SDS011;52893;52.870;5.822;2023-04-24T03:33:12;1.85;;;1.58;;
66112;SDS011;52893;52.870;5.822;2023-04-24T03:35:47;3.90;;;2.70;;
66112;SDS011;52893;52.870;5.822;2023-04-24T03:38:15;4.28;;;2.90;;
66112;SDS011;52893;52.870;5.822;2023-04-24T03:40:43;7.00;;;4.13;;
66112;SDS011;52893;52.870;5.822;2023-04-24T03:43:26;9.13;;;5.22;;
66112;SDS011;52893;52.870;5.822;2023-04-24T03:45:55;12.90;;;6.70;;
66112;SDS011;52893;52.870;5.822;2023-04-24T03:48:23;7.35;;;5.50;;
66112;SDS011;52893;52.870;5.822;2023-04-24T03:50:50;11.23;;;5.93;;
66112;SDS011;52893;52.870;5.822;2023-04-24T03:53:19;15.40;;;7.78;;
66112;SDS011;52893;52.870;5.822;2023-04-24T03:55:47;19.20;;;8.68;;
66112;SDS011;52893;52.870;5.822;2023-04-24T03:58:15;14.40;;;7.47;;
66112;SDS011;52893;52.870;5.822;2023-04-24T04:00:43;17.90;;;9.32;;
66112;SDS011;52893;52.870;5.822;2023-04-24T04:03:37;14.35;;;7.93;;
66112;SDS011;52893;52.870;5.822;2023-04-24T04:06:05;15.43;;;6.43;;
66112;SDS011;52893;52.870;5.822;2023-04-24T04:08:34;9.90;;;5.95;;
66112;SDS011;52893;52.870;5.822;2023-04-24T04:11:02;12.75;;;6.22;;
66112;SDS011;52893;52.870;5.822;2023-04-24T04:13:29;12.60;;;6.68;;
66112;SDS011;52893;52.870;5.822;2023-04-24T04:15:57;9.57;;;5.90;;
66112;SDS011;52893;52.870;5.822;2023-04-24T04:18:24;10.60;;;5.68;;
66112;SDS011;52893;52.870;5.822;2023-04-24T04:20:51;11.25;;;6.05;;
66112;SDS011;52893;52.870;5.822;2023-04-24T04:23:18;13.13;;;6.00;;
66112;SDS011;52893;52.870;5.822;2023-04-24T04:26:02;10.15;;;5.70;;
66112;SDS011;52893;52.870;5.822;2023-04-24T04:28:45;11.95;;;5.65;;
66112;SDS011;52893;52.870;5.822;2023-04-24T04:31:13;12.60;;;6.05;;
66112;SDS011;52893;52.870;5.822;2023-04-24T04:33:40;10.95;;;5.35;;
66112;SDS011;52893;52.870;5.822;2023-04-24T04:36:10;13.30;;;6.13;;
66112;SDS011;52893;52.870;5.822;2023-04-24T04:38:44;11.48;;;5.80;;
66112;SDS011;52893;52.870;5.822;2023-04-24T04:41:36;11.52;;;5.85;;
66112;SDS011;52893;52.870;5.822;2023-04-24T04:44:07;12.80;;;5.60;;
66112;SDS011;52893;52.870;5.822;2023-04-24T04:46:35;12.45;;;6.70;;
66112;SDS011;52893;52.870;5.822;2023-04-24T04:49:13;8.85;;;4.88;;
66112;SDS011;52893;52.870;5.822;2023-04-24T04:51:42;9.98;;;4.40;;
66112;SDS011;52893;52.870;5.822;2023-04-24T04:54:10;6.38;;;3.97;;
66112;SDS011;52893;52.870;5.822;2023-04-24T04:56:39;5.45;;;4.10;;
66112;SDS011;52893;52.870;5.822;2023-04-24T04:59:06;5.25;;;3.38;;
66112;SDS011;52893;52.870;5.822;2023-04-24T05:01:35;8.52;;;3.85;;
66112;SDS011;52893;52.870;5.822;2023-04-24T05:04:03;4.82;;;3.80;;
66112;SDS011;52893;52.870;5.822;2023-04-24T05:06:30;6.50;;;3.47;;
66112;SDS011;52893;52.870;5.822;2023-04-24T05:08:58;4.93;;;3.13;;
66112;SDS011;52893;52.870;5.822;2023-04-24T05:11:34;7.55;;;3.70;;
66112;SDS011;52893;52.870;5.822;2023-04-24T05:14:03;7.50;;;3.67;;
66112;SDS011;52893;52.870;5.822;2023-04-24T05:16:36;8.23;;;4.00;;
66112;SDS011;52893;52.870;5.822;2023-04-24T05:19:05;7.95;;;3.22;;
66112;SDS011;52893;52.870;5.822;2023-04-24T05:21:39;5.38;;;3.25;;
66112;SDS011;52893;52.870;5.822;2023-04-24T05:24:07;4.97;;;2.53;;
66112;SDS011;52893;52.870;5.822;2023-04-24T05:26:53;3.83;;;2.78;;
66112;SDS011;52893;52.870;5.822;2023-04-24T05:29:26;5.23;;;2.63;;
66112;SDS011;52893;52.870;5.822;2023-04-24T05:31:56;5.15;;;2.70;;
66112;SDS011;52893;52.870;5.822;2023-04-24T05:34:24;4.55;;;2.75;;
66112;SDS011;52893;52.870;5.822;2023-04-24T05:36:55;8.13;;;2.88;;
66112;SDS011;52893;52.870;5.822;2023-04-24T05:39:22;4.60;;;2.80;;
66112;SDS011;52893;52.870;5.822;2023-04-24T05:41:50;7.65;;;3.75;;
66112;SDS011;52893;52.870;5.822;2023-04-24T05:44:18;6.57;;;3.67;;
66112;SDS011;52893;52.870;5.822;2023-04-24T05:46:47;7.70;;;4.10;;
66112;SDS011;52893;52.870;5.822;2023-04-24T05:49:15;9.48;;;4.20;;
66112;SDS011;52893;52.870;5.822;2023-04-24T05:51:42;7.78;;;4.40;;
66112;SDS011;52893;52.870;5.822;2023-04-24T05:54:10;5.18;;;3.60;;
66112;SDS011;52893;52.870;5.822;2023-04-24T05:56:38;6.57;;;3.20;;
66112;SDS011;52893;52.870;5.822;2023-04-24T05:59:06;6.45;;;3.22;;
66112;SDS011;52893;52.870;5.822;2023-04-24T06:01:34;5.72;;;3.05;;
66112;SDS011;52893;52.870;5.822;2023-04-24T06:04:12;5.85;;;3.13;;
66112;SDS011;52893;52.870;5.822;2023-04-24T06:06:40;6.93;;;3.45;;
66112;SDS011;52893;52.870;5.822;2023-04-24T06:09:08;8.05;;;3.38;;
66112;SDS011;52893;52.870;5.822;2023-04-24T06:11:36;6.75;;;3.10;;
66112;SDS011;52893;52.870;5.822;2023-04-24T06:14:03;4.18;;;3.08;;
66112;SDS011;52893;52.870;5.822;2023-04-24T06:16:37;7.10;;;3.88;;
66112;SDS011;52893;52.870;5.822;2023-04-24T06:19:16;6.10;;;3.70;;
66112;SDS011;52893;52.870;5.822;2023-04-24T06:21:43;5.47;;;3.67;;
66112;SDS011;52893;52.870;5.822;2023-04-24T06:24:10;2.65;;;2.45;;
66112;SDS011;52893;52.870;5.822;2023-04-24T06:26:37;6.57;;;2.92;;
66112;SDS011;52893;52.870;5.822;2023-04-24T06:29:07;6.25;;;3.00;;
66112;SDS011;52893;52.870;5.822;2023-04-24T06:31:35;4.55;;;2.03;;
66112;SDS011;52893;52.870;5.822;2023-04-24T06:34:02;3.72;;;1.60;;
66112;SDS011;52893;52.870;5.822;2023-04-24T06:36:31;2.67;;;1.60;;
66112;SDS011;52893;52.870;5.822;2023-04-24T06:39:00;3.08;;;1.40;;
66112;SDS011;52893;52.870;5.822;2023-04-24T06:41:28;3.00;;;2.33;;
66112;SDS011;52893;52.870;5.822;2023-04-24T06:43:55;3.42;;;1.92;;
66112;SDS011;52893;52.870;5.822;2023-04-24T06:46:23;8.00;;;2.78;;
66112;SDS011;52893;52.870;5.822;2023-04-24T06:48:51;8.02;;;3.03;;
66112;SDS011;52893;52.870;5.822;2023-04-24T06:51:22;8.85;;;4.03;;
66112;SDS011;52893;52.870;5.822;2023-04-24T06:53:51;13.05;;;4.28;;
66112;SDS011;52893;52.870;5.822;2023-04-24T06:56:18;13.43;;;5.70;;
66112;SDS011;52893;52.870;5.822;2023-04-24T06:58:45;15.13;;;6.28;;
66112;SDS011;52893;52.870;5.822;2023-04-24T07:01:13;17.77;;;7.55;;
66112;SDS011;52893;52.870;5.822;2023-04-24T07:03:40;20.77;;;7.55;;
66112;SDS011;52893;52.870;5.822;2023-04-24T07:06:07;15.18;;;7.57;;
66112;SDS011;52893;52.870;5.822;2023-04-24T07:08:36;17.10;;;7.80;;
66112;SDS011;52893;52.870;5.822;2023-04-24T07:11:05;22.27;;;9.55;;
66112;SDS011;52893;52.870;5.822;2023-04-24T07:13:33;18.75;;;9.55;;
66112;SDS011;52893;52.870;5.822;2023-04-24T07:16:01;23.27;;;10.35;;
66112;SDS011;52893;52.870;5.822;2023-04-24T07:18:28;25.70;;;10.32;;
66112;SDS011;52893;52.870;5.822;2023-04-24T07:20:56;27.40;;;10.63;;
66112;SDS011;52893;52.870;5.822;2023-04-24T07:23:23;22.13;;;10.35;;
66112;SDS011;52893;52.870;5.822;2023-04-24T07:25:50;26.42;;;10.55;;
66112;SDS011;52893;52.870;5.822;2023-04-24T07:28:19;21.73;;;10.85;;
66112;SDS011;52893;52.870;5.822;2023-04-24T07:30:46;23.85;;;10.32;;
66112;SDS011;52893;52.870;5.822;2023-04-24T07:33:13;16.15;;;8.73;;
66112;SDS011;52893;52.870;5.822;2023-04-24T07:35:41;21.50;;;9.50;;
66112;SDS011;52893;52.870;5.822;2023-04-24T07:38:09;21.10;;;10.60;;
66112;SDS011;52893;52.870;5.822;2023-04-24T07:40:37;20.80;;;8.90;;
66112;SDS011;52893;52.870;5.822;2023-04-24T07:43:04;16.02;;;8.38;;
66112;SDS011;52893;52.870;5.822;2023-04-24T07:45:33;13.88;;;6.95;;
66112;SDS011;52893;52.870;5.822;2023-04-24T07:48:02;17.80;;;8.32;;
66112;SDS011;52893;52.870;5.822;2023-04-24T07:50:30;18.98;;;7.13;;
66112;SDS011;52893;52.870;5.822;2023-04-24T07:52:57;16.17;;;6.35;;
66112;SDS011;52893;52.870;5.822;2023-04-24T07:55:24;18.70;;;7.13;;
66112;SDS011;52893;52.870;5.822;2023-04-24T07:57:52;22.23;;;7.07;;
66112;SDS011;52893;52.870;5.822;2023-04-24T08:00:19;21.30;;;7.00;;
66112;SDS011;52893;52.870;5.822;2023-04-24T08:02:48;13.10;;;5.35;;
66112;SDS011;52893;52.870;5.822;2023-04-24T08:05:15;17.77;;;6.82;;
66112;SDS011;52893;52.870;5.822;2023-04-24T08:07:43;15.18;;;5.78;;
66112;SDS011;52893;52.870;5.822;2023-04-24T08:10:12;10.48;;;5.53;;
66112;SDS011;52893;52.870;5.822;2023-04-24T08:12:39;10.93;;;4.15;;
66112;SDS011;52893;52.870;5.822;2023-04-24T08:15:06;8.07;;;3.92;;
66112;SDS011;52893;52.870;5.822;2023-04-24T08:17:34;16.45;;;5.13;;
66112;SDS011;52893;52.870;5.822;2023-04-24T08:20:04;17.73;;;6.18;;
66112;SDS011;52893;52.870;5.822;2023-04-24T08:22:35;11.63;;;4.78;;
66112;SDS011;52893;52.870;5.822;2023-04-24T08:25:03;13.85;;;4.97;;
66112;SDS011;52893;52.870;5.822;2023-04-24T08:27:31;9.70;;;3.83;;
66112;SDS011;52893;52.870;5.822;2023-04-24T08:29:58;11.43;;;4.50;;
66112;SDS011;52893;52.870;5.822;2023-04-24T08:32:25;17.05;;;4.50;;
66112;SDS011;52893;52.870;5.822;2023-04-24T08:34:54;11.45;;;4.55;;
66112;SDS011;52893;52.870;5.822;2023-04-24T08:37:23;6.60;;;3.17;;
66112;SDS011;52893;52.870;5.822;2023-04-24T08:39:52;10.80;;;4.05;;
66112;SDS011;52893;52.870;5.822;2023-04-24T08:42:20;10.95;;;3.50;;
66112;SDS011;52893;52.870;5.822;2023-04-24T08:44:48;8.23;;;3.88;;
66112;SDS011;52893;52.870;5.822;2023-04-24T08:47:16;4.90;;;2.65;;
66112;SDS011;52893;52.870;5.822;2023-04-24T08:49:44;7.07;;;2.65;;
66112;SDS011;52893;52.870;5.822;2023-04-24T08:52:14;8.65;;;3.10;;
66112;SDS011;52893;52.870;5.822;2023-04-24T08:54:43;9.40;;;2.85;;
66112;SDS011;52893;52.870;5.822;2023-04-24T08:57:22;9.18;;;3.20;;
66112;SDS011;52893;52.870;5.822;2023-04-24T08:59:49;7.03;;;2.50;;
66112;SDS011;52893;52.870;5.822;2023-04-24T09:02:18;4.55;;;1.90;;
66112;SDS011;52893;52.870;5.822;2023-04-24T09:04:46;10.25;;;2.60;;
66112;SDS011;52893;52.870;5.822;2023-04-24T09:07:14;9.27;;;2.85;;
66112;SDS011;52893;52.870;5.822;2023-04-24T09:09:45;13.82;;;3.35;;
66112;SDS011;52893;52.870;5.822;2023-04-24T09:12:12;18.55;;;3.60;;
66112;SDS011;52893;52.870;5.822;2023-04-24T09:14:39;14.32;;;2.53;;
66112;SDS011;52893;52.870;5.822;2023-04-24T09:17:10;12.63;;;2.72;;
66112;SDS011;52893;52.870;5.822;2023-04-24T09:19:37;8.32;;;2.20;;
66112;SDS011;52893;52.870;5.822;2023-04-24T09:22:05;6.95;;;1.85;;
66112;SDS011;52893;52.870;5.822;2023-04-24T09:24:33;10.85;;;2.22;;
66112;SDS011;52893;52.870;5.822;2023-04-24T09:27:02;10.75;;;2.35;;
66112;SDS011;52893;52.870;5.822;2023-04-24T09:29:31;6.88;;;1.92;;
66112;SDS011;52893;52.870;5.822;2023-04-24T09:31:58;8.27;;;2.22;;
66112;SDS011;52893;52.870;5.822;2023-04-24T09:34:26;6.90;;;1.45;;
66112;SDS011;52893;52.870;5.822;2023-04-24T09:36:54;11.15;;;2.17;;
66112;SDS011;52893;52.870;5.822;2023-04-24T09:39:21;12.75;;;1.67;;
66112;SDS011;52893;52.870;5.822;2023-04-24T09:41:49;8.88;;;2.08;;
66112;SDS011;52893;52.870;5.822;2023-04-24T09:44:19;7.20;;;1.88;;
66112;SDS011;52893;52.870;5.822;2023-04-24T09:46:50;4.95;;;1.60;;
66112;SDS011;52893;52.870;5.822;2023-04-24T09:49:21;12.77;;;1.58;;
66112;SDS011;52893;52.870;5.822;2023-04-24T09:51:50;6.28;;;1.42;;
66112;SDS011;52893;52.870;5.822;2023-04-24T09:54:18;12.60;;;2.25;;
66112;SDS011;52893;52.870;5.822;2023-04-24T09:56:48;7.70;;;1.52;;
66112;SDS011;52893;52.870;5.822;2023-04-24T09:59:17;9.02;;;2.50;;
66112;SDS011;52893;52.870;5.822;2023-04-24T10:01:46;11.27;;;1.70;;
66112;SDS011;52893;52.870;5.822;2023-04-24T10:04:15;4.63;;;1.00;;
66112;SDS011;52893;52.870;5.822;2023-04-24T10:06:44;6.30;;;1.50;;
66112;SDS011;52893;52.870;5.822;2023-04-24T10:09:14;6.00;;;1.70;;
66112;SDS011;52893;52.870;5.822;2023-04-24T10:11:43;10.32;;;1.55;;
66112;SDS011;52893;52.870;5.822;2023-04-24T10:14:12;11.63;;;1.42;;
66112;SDS011;52893;52.870;5.822;2023-04-24T10:16:42;7.60;;;1.60;;
66112;SDS011;52893;52.870;5.822;2023-04-24T10:19:12;5.20;;;1.13;;
66112;SDS011;52893;52.870;5.822;2023-04-24T10:21:40;8.50;;;1.30;;
66112;SDS011;52893;52.870;5.822;2023-04-24T10:24:12;4.70;;;0.98;;
66112;SDS011;52893;52.870;5.822;2023-04-24T10:26:40;9.90;;;1.25;;
66112;SDS011;52893;52.870;5.822;2023-04-24T10:29:07;7.45;;;1.48;;
66112;SDS011;52893;52.870;5.822;2023-04-24T10:31:38;9.43;;;1.15;;
66112;SDS011;52893;52.870;5.822;2023-04-24T10:34:08;6.70;;;1.38;;
66112;SDS011;52893;52.870;5.822;2023-04-24T10:36:40;9.45;;;1.50;;
66112;SDS011;52893;52.870;5.822;2023-04-24T10:39:10;7.25;;;1.30;;
66112;SDS011;52893;52.870;5.822;2023-04-24T10:41:40;7.30;;;1.25;;
66112;SDS011;52893;52.870;5.822;2023-04-24T10:44:08;8.93;;;1.48;;
66112;SDS011;52893;52.870;5.822;2023-04-24T10:46:36;6.53;;;1.70;;
66112;SDS011;52893;52.870;5.822;2023-04-24T10:49:04;8.45;;;1.40;;
66112;SDS011;52893;52.870;5.822;2023-04-24T10:51:46;6.20;;;1.23;;
66112;SDS011;52893;52.870;5.822;2023-04-24T10:54:25;6.50;;;1.38;;
66112;SDS011;52893;52.870;5.822;2023-04-24T11:00:09;15.35;;;1.48;;
66112;SDS011;52893;52.870;5.822;2023-04-24T11:02:40;11.13;;;2.13;;
66112;SDS011;52893;52.870;5.822;2023-04-24T11:05:14;4.45;;;1.10;;
66112;SDS011;52893;52.870;5.822;2023-04-24T11:10:43;9.27;;;1.38;;
66112;SDS011;52893;52.870;5.822;2023-04-24T11:13:14;6.47;;;1.33;;
66112;SDS011;52893;52.870;5.822;2023-04-24T11:15:42;5.05;;;1.25;;
66112;SDS011;52893;52.870;5.822;2023-04-24T11:18:12;3.90;;;1.17;;
66112;SDS011;52893;52.870;5.822;2023-04-24T11:20:44;3.90;;;1.10;;
66112;SDS011;52893;52.870;5.822;2023-04-24T11:23:12;2.25;;;0.60;;
66112;SDS011;52893;52.870;5.822;2023-04-24T11:25:52;4.57;;;1.00;;
66112;SDS011;52893;52.870;5.822;2023-04-24T11:28:37;4.70;;;0.70;;
66112;SDS011;52893;52.870;5.822;2023-04-24T11:34:05;5.38;;;1.00;;
66112;SDS011;52893;52.870;5.822;2023-04-24T11:36:34;1.95;;;0.60;;
66112;SDS011;52893;52.870;5.822;2023-04-24T11:39:02;4.65;;;1.10;;
66112;SDS011;52893;52.870;5.822;2023-04-24T11:41:31;9.32;;;1.40;;
66112;SDS011;52893;52.870;5.822;2023-04-24T11:43:59;2.72;;;0.60;;
66112;SDS011;52893;52.870;5.822;2023-04-24T11:46:28;4.38;;;1.00;;
66112;SDS011;52893;52.870;5.822;2023-04-24T11:48:56;2.97;;;0.60;;
66112;SDS011;52893;52.870;5.822;2023-04-24T11:51:23;5.93;;;0.80;;
66112;SDS011;52893;52.870;5.822;2023-04-24T11:53:52;6.43;;;0.57;;
66112;SDS011;52893;52.870;5.822;2023-04-24T11:56:21;6.10;;;0.70;;
66112;SDS011;52893;52.870;5.822;2023-04-24T11:58:51;4.68;;;0.60;;
66112;SDS011;52893;52.870;5.822;2023-04-24T12:01:18;3.33;;;0.50;;
66112;SDS011;52893;52.870;5.822;2023-04-24T12:03:49;3.78;;;0.65;;
66112;SDS011;52893;52.870;5.822;2023-04-24T12:06:17;5.82;;;0.70;;
66112;SDS011;52893;52.870;5.822;2023-04-24T12:08:46;3.15;;;0.80;;
66112;SDS011;52893;52.870;5.822;2023-04-24T12:11:15;7.45;;;0.98;;
66112;SDS011;52893;52.870;5.822;2023-04-24T12:13:44;5.97;;;0.93;;
66112;SDS011;52893;52.870;5.822;2023-04-24T12:16:14;3.50;;;0.52;;
66112;SDS011;52893;52.870;5.822;2023-04-24T12:18:41;6.57;;;0.93;;
66112;SDS011;52893;52.870;5.822;2023-04-24T12:21:16;1.40;;;0.43;;
66112;SDS011;52893;52.870;5.822;2023-04-24T12:23:45;1.52;;;0.43;;
66112;SDS011;52893;52.870;5.822;2023-04-24T12:26:15;4.38;;;0.82;;
66112;SDS011;52893;52.870;5.822;2023-04-24T12:28:46;1.70;;;0.40;;
66112;SDS011;52893;52.870;5.822;2023-04-24T12:31:17;1.80;;;0.40;;
66112;SDS011;52893;52.870;5.822;2023-04-24T12:33:44;3.75;;;0.57;;
66112;SDS011;52893;52.870;5.822;2023-04-24T12:36:11;4.05;;;0.80;;
66112;SDS011;52893;52.870;5.822;2023-04-24T12:38:39;3.80;;;0.50;;
66112;SDS011;52893;52.870;5.822;2023-04-24T12:41:11;5.97;;;0.70;;
66112;SDS011;52893;52.870;5.822;2023-04-24T12:43:50;5.00;;;0.85;;
66112;SDS011;52893;52.870;5.822;2023-04-24T12:46:19;6.65;;;0.80;;
66112;SDS011;52893;52.870;5.822;2023-04-24T12:48:47;9.77;;;0.85;;
66112;SDS011;52893;52.870;5.822;2023-04-24T12:51:14;4.13;;;0.82;;
66112;SDS011;52893;52.870;5.822;2023-04-24T12:53:41;10.52;;;1.05;;
66112;SDS011;52893;52.870;5.822;2023-04-24T12:56:09;7.03;;;0.95;;
66112;SDS011;52893;52.870;5.822;2023-04-24T12:58:37;5.03;;;0.95;;
66112;SDS011;52893;52.870;5.822;2023-04-24T13:01:05;5.97;;;1.00;;
66112;SDS011;52893;52.870;5.822;2023-04-24T13:03:34;9.45;;;1.15;;
66112;SDS011;52893;52.870;5.822;2023-04-24T13:06:02;12.30;;;1.27;;
66112;SDS011;52893;52.870;5.822;2023-04-24T13:08:30;13.23;;;1.52;;
66112;SDS011;52893;52.870;5.822;2023-04-24T13:10:57;8.00;;;1.27;;
66112;SDS011;52893;52.870;5.822;2023-04-24T13:13:24;10.00;;;1.55;;
66112;SDS011;52893;52.870;5.822;2023-04-24T13:15:52;10.75;;;1.17;;
66112;SDS011;52893;52.870;5.822;2023-04-24T13:18:19;9.73;;;1.30;;
66112;SDS011;52893;52.870;5.822;2023-04-24T13:20:48;12.07;;;1.77;;
66112;SDS011;52893;52.870;5.822;2023-04-24T13:23:15;7.60;;;1.40;;
66112;SDS011;52893;52.870;5.822;2023-04-24T13:25:44;9.73;;;1.63;;
66112;SDS011;52893;52.870;5.822;2023-04-24T13:28:13;7.13;;;1.30;;
66112;SDS011;52893;52.870;5.822;2023-04-24T13:30:41;10.60;;;1.75;;
66112;SDS011;52893;52.870;5.822;2023-04-24T13:33:08;15.45;;;1.80;;
66112;SDS011;52893;52.870;5.822;2023-04-24T13:35:36;10.20;;;1.73;;
66112;SDS011;52893;52.870;5.822;2023-04-24T13:38:04;11.07;;;1.48;;
66112;SDS011;52893;52.870;5.822;2023-04-24T13:40:33;9.18;;;1.58;;
66112;SDS011;52893;52.870;5.822;2023-04-24T13:43:01;11.05;;;1.30;;
66112;SDS011;52893;52.870;5.822;2023-04-24T13:45:29;7.32;;;1.50;;
66112;SDS011;52893;52.870;5.822;2023-04-24T13:47:56;16.40;;;2.10;;
66112;SDS011;52893;52.870;5.822;2023-04-24T13:50:23;11.77;;;2.03;;
66112;SDS011;52893;52.870;5.822;2023-04-24T13:52:51;12.73;;;2.30;;
66112;SDS011;52893;52.870;5.822;2023-04-24T13:55:20;11.23;;;1.75;;
66112;SDS011;52893;52.870;5.822;2023-04-24T13:57:47;11.48;;;1.77;;
66112;SDS011;52893;52.870;5.822;2023-04-24T14:00:15;7.18;;;0.80;;
66112;SDS011;52893;52.870;5.822;2023-04-24T14:02:43;7.72;;;1.10;;
66112;SDS011;52893;52.870;5.822;2023-04-24T14:05:12;13.00;;;1.30;;
66112;SDS011;52893;52.870;5.822;2023-04-24T14:07:41;8.13;;;1.50;;
66112;SDS011;52893;52.870;5.822;2023-04-24T14:10:08;9.38;;;2.00;;
66112;SDS011;52893;52.870;5.822;2023-04-24T14:12:37;12.63;;;2.00;;
66112;SDS011;52893;52.870;5.822;2023-04-24T14:15:05;17.67;;;1.83;;
66112;SDS011;52893;52.870;5.822;2023-04-24T14:17:35;9.82;;;1.75;;
66112;SDS011;52893;52.870;5.822;2023-04-24T14:20:03;14.57;;;1.77;;
66112;SDS011;52893;52.870;5.822;2023-04-24T14:22:33;8.30;;;1.52;;
66112;SDS011;52893;52.870;5.822;2023-04-24T14:25:03;6.78;;;1.35;;
66112;SDS011;52893;52.870;5.822;2023-04-24T14:27:33;6.95;;;1.38;;
66112;SDS011;52893;52.870;5.822;2023-04-24T14:30:04;9.00;;;1.60;;
66112;SDS011;52893;52.870;5.822;2023-04-24T14:32:32;7.22;;;1.35;;
66112;SDS011;52893;52.870;5.822;2023-04-24T14:34:59;9.05;;;1.27;;
66112;SDS011;52893;52.870;5.822;2023-04-24T14:37:27;12.75;;;1.77;;
66112;SDS011;52893;52.870;5.822;2023-04-24T14:39:55;10.80;;;1.63;;
66112;SDS011;52893;52.870;5.822;2023-04-24T14:42:22;11.00;;;1.70;;
66112;SDS011;52893;52.870;5.822;2023-04-24T14:44:49;9.77;;;1.92;;
66112;SDS011;52893;52.870;5.822;2023-04-24T14:47:18;7.25;;;1.33;;
66112;SDS011;52893;52.870;5.822;2023-04-24T14:49:47;10.23;;;1.90;;
66112;SDS011;52893;52.870;5.822;2023-04-24T14:52:15;15.75;;;2.70;;
66112;SDS011;52893;52.870;5.822;2023-04-24T14:54:43;9.93;;;1.90;;
66112;SDS011;52893;52.870;5.822;2023-04-24T14:57:11;12.90;;;3.00;;
66112;SDS011;52893;52.870;5.822;2023-04-24T14:59:39;12.43;;;2.92;;
66112;SDS011;52893;52.870;5.822;2023-04-24T15:02:06;12.63;;;1.98;;